createdAt,value
2016-07-29T05:04:57.346Z,248
2016-07-29T05:05:57.379Z,256
2016-07-29T05:06:57.407Z,260
2016-07-29T05:07:58.136Z,264
2016-07-29T05:08:57.463Z,272
2016-07-29T05:09:58.190Z,288
2016-07-29T05:10:57.531Z,312
2016-07-29T05:11:57.543Z,368
2016-07-29T05:12:57.562Z,452
2016-07-29T05:13:57.608Z,500
2016-07-29T05:14:57.619Z,520
2016-07-29T05:15:57.649Z,476
2016-07-29T05:16:57.679Z,464
2016-07-29T05:17:57.703Z,500
2016-07-29T05:18:57.731Z,444
2016-07-29T05:19:57.755Z,416
2016-07-29T05:20:57.782Z,416
2016-07-29T05:21:57.817Z,456
2016-07-29T05:22:57.827Z,448
2016-07-29T05:23:57.983Z,444
2016-07-29T05:24:57.977Z,480
2016-07-29T05:25:58.143Z,512
2016-07-29T05:26:58.854Z,580
2016-07-29T05:27:58.165Z,652
2016-07-29T05:28:58.121Z,668
2016-07-29T05:29:58.174Z,640
2016-07-29T05:30:58.236Z,468
2016-07-29T05:31:58.238Z,360
2016-07-29T05:32:58.235Z,312
2016-07-29T05:33:58.942Z,308
2016-07-29T05:34:58.254Z,304
2016-07-29T05:35:58.265Z,312
2016-07-29T05:36:58.298Z,356
2016-07-29T05:37:58.311Z,408
2016-07-29T05:38:58.333Z,460
2016-07-29T05:39:58.343Z,464
2016-07-29T05:40:58.354Z,428
2016-07-29T05:41:58.356Z,464
2016-07-29T05:42:58.381Z,588
2016-07-29T05:43:58.404Z,720
2016-07-29T05:44:59.130Z,708
2016-07-29T05:45:58.453Z,620
2016-07-29T05:46:58.481Z,520
2016-07-29T05:47:58.707Z,488
2016-07-29T05:48:58.532Z,468
2016-07-29T05:49:58.559Z,416
2016-07-29T05:50:58.584Z,440
2016-07-29T05:51:58.621Z,584
2016-07-29T05:52:59.341Z,744
2016-07-29T05:53:58.671Z,636
2016-07-29T05:54:58.689Z,480
2016-07-29T05:55:59.425Z,432
2016-07-29T05:56:58.748Z,404
2016-07-29T05:57:59.480Z,404
2016-07-29T05:59:00.215Z,420
2016-07-29T05:59:58.840Z,452
2016-07-29T06:00:58.857Z,508
2016-07-29T06:01:58.878Z,592
2016-07-29T06:02:58.910Z,668
2016-07-29T06:03:58.989Z,608
2016-07-29T06:04:58.962Z,476
2016-07-29T06:05:59.142Z,420
2016-07-29T06:06:59.147Z,400
2016-07-29T06:07:59.396Z,388
2016-07-29T06:08:59.203Z,372
2016-07-29T06:09:59.188Z,364
2016-07-29T06:10:59.124Z,356
2016-07-29T06:11:59.861Z,340
2016-07-29T06:12:59.173Z,324
2016-07-29T06:13:59.220Z,320
2016-07-29T06:14:59.237Z,316
2016-07-29T06:15:59.254Z,320
2016-07-29T06:16:59.995Z,332
2016-07-29T06:17:59.325Z,348
2016-07-29T06:18:59.342Z,356
2016-07-29T06:19:59.361Z,356
2016-07-29T06:20:59.395Z,376
2016-07-29T06:21:59.419Z,408
2016-07-29T06:23:00.145Z,444
2016-07-29T06:23:59.468Z,476
2016-07-29T06:24:59.605Z,512
2016-07-29T06:25:59.522Z,476
2016-07-29T06:26:59.553Z,448
2016-07-29T06:27:59.577Z,432
2016-07-29T06:28:59.604Z,416
2016-07-29T06:29:59.637Z,408
2016-07-29T06:30:59.657Z,416
2016-07-29T06:31:59.683Z,416
2016-07-29T06:32:59.710Z,416
2016-07-29T06:33:59.737Z,416
2016-07-29T06:35:00.468Z,428
2016-07-29T06:35:59.795Z,432
2016-07-29T06:36:59.821Z,444
2016-07-29T06:37:59.848Z,512
2016-07-29T06:38:59.997Z,592
2016-07-29T06:39:59.902Z,540
2016-07-29T06:40:59.933Z,480
2016-07-29T06:41:59.966Z,476
2016-07-29T06:42:59.982Z,492
2016-07-29T06:44:00.720Z,456
2016-07-29T06:45:00.038Z,472
2016-07-29T06:46:00.068Z,512
2016-07-29T06:47:00.089Z,524
2016-07-29T06:48:00.116Z,544
2016-07-29T06:49:00.198Z,580
2016-07-29T06:50:00.179Z,612
2016-07-29T06:51:00.203Z,640
2016-07-29T06:52:00.234Z,644
2016-07-29T06:53:00.328Z,644
2016-07-29T06:54:00.277Z,568
2016-07-29T06:55:00.309Z,496
2016-07-29T06:56:00.336Z,448
2016-07-29T06:57:00.360Z,440
2016-07-29T06:58:00.400Z,448
2016-07-29T06:59:00.421Z,472
2016-07-29T07:00:00.437Z,556
2016-07-29T07:01:00.476Z,576
2016-07-29T07:02:00.496Z,600
2016-07-29T07:03:00.525Z,616
2016-07-29T07:04:00.563Z,564
2016-07-29T07:05:00.630Z,576
2016-07-29T07:06:00.612Z,592
2016-07-29T07:07:00.637Z,624
2016-07-29T07:08:00.659Z,1004
2016-07-29T07:09:01.394Z,1216
2016-07-29T07:10:19.943Z,1168
2016-07-29T07:11:00.842Z,1148
2016-07-29T07:12:00.865Z,900
2016-07-29T07:13:01.041Z,864
2016-07-29T07:14:01.047Z,892
2016-07-29T07:15:01.140Z,1124
2016-07-29T07:16:01.061Z,1104
2016-07-29T07:17:01.065Z,960
2016-07-29T07:18:01.118Z,820
2016-07-29T07:19:00.978Z,852
2016-07-29T07:20:00.989Z,868
2016-07-29T07:21:01.030Z,736
2016-07-29T07:22:01.970Z,652
2016-07-29T07:23:01.137Z,644
2016-07-29T07:24:01.111Z,592
2016-07-29T07:25:01.129Z,584
2016-07-29T07:26:01.157Z,600
2016-07-29T07:27:01.181Z,592
2016-07-29T07:28:02.009Z,604
2016-07-29T07:29:01.236Z,704
2016-07-29T07:30:01.265Z,832
2016-07-29T07:31:01.293Z,864
2016-07-29T07:32:01.327Z,804
2016-07-29T07:33:02.110Z,684
2016-07-29T07:34:01.574Z,668
2016-07-29T07:35:01.400Z,664
2016-07-29T07:36:01.438Z,684
2016-07-29T07:37:02.163Z,672
2016-07-29T07:38:01.642Z,600
2016-07-29T07:39:01.523Z,572
2016-07-29T07:40:01.586Z,604
2016-07-29T07:41:02.275Z,644
2016-07-29T07:42:01.593Z,640
2016-07-29T07:43:01.643Z,636
2016-07-29T07:44:01.652Z,808
2016-07-29T07:45:01.687Z,1032
2016-07-29T07:46:01.704Z,760
2016-07-29T07:47:01.736Z,648
2016-07-29T07:48:01.772Z,680
2016-07-29T07:49:01.786Z,688
2016-07-29T07:50:01.920Z,628
2016-07-29T07:51:01.955Z,724
2016-07-29T07:52:01.865Z,872
2016-07-29T07:53:01.891Z,1308
2016-07-29T07:54:01.927Z,1160
2016-07-29T07:55:01.951Z,904
2016-07-29T07:56:01.976Z,756
2016-07-29T07:57:02.003Z,620
2016-07-29T07:58:02.031Z,668
2016-07-29T07:59:02.064Z,848
2016-07-29T08:00:02.089Z,1000
2016-07-29T08:01:02.899Z,884
2016-07-29T08:02:02.148Z,960
2016-07-29T08:03:02.169Z,1056
2016-07-29T08:04:02.908Z,936
2016-07-29T08:05:03.014Z,784
2016-07-29T08:06:02.256Z,660
2016-07-29T08:07:02.283Z,632
2016-07-29T08:08:02.317Z,708
2016-07-29T08:09:02.346Z,748
2016-07-29T08:10:03.074Z,792
2016-07-29T08:11:02.595Z,928
2016-07-29T08:12:02.425Z,1392
2016-07-29T08:13:02.451Z,1264
2016-07-29T08:14:02.677Z,1056
2016-07-29T08:15:02.522Z,872
2016-07-29T08:16:02.535Z,800
2016-07-29T08:17:02.629Z,820
2016-07-29T08:18:03.303Z,1036
2016-07-29T08:19:02.620Z,1180
2016-07-29T08:20:02.670Z,1216
2016-07-29T08:21:02.683Z,1208
2016-07-29T08:22:02.703Z,1152
2016-07-29T08:23:02.732Z,1276
2016-07-29T08:24:03.473Z,1220
2016-07-29T08:25:02.783Z,1080
2016-07-29T08:26:02.822Z,976
2016-07-29T08:27:03.668Z,1092
2016-07-29T08:28:03.026Z,900
2016-07-29T08:29:02.898Z,1024
2016-07-29T08:30:02.928Z,876
2016-07-29T08:31:03.757Z,708
2016-07-29T08:32:02.992Z,724
2016-07-29T08:33:03.007Z,968
2016-07-29T08:34:03.121Z,1460
2016-07-29T08:35:03.774Z,1548
2016-07-29T08:36:03.179Z,1592
2016-07-29T08:37:03.175Z,1420
2016-07-29T08:38:03.863Z,1064
2016-07-29T08:39:03.186Z,1008
2016-07-29T08:40:03.914Z,1204
2016-07-29T08:41:03.389Z,1552
2016-07-29T08:42:03.304Z,1560
2016-07-29T08:43:03.341Z,2388
2016-07-29T08:44:04.027Z,2480
2016-07-29T08:45:03.346Z,2356
2016-07-29T08:46:04.087Z,2000
2016-07-29T08:47:04.124Z,1672
2016-07-29T08:48:03.536Z,1448
2016-07-29T08:49:03.549Z,1568
2016-07-29T08:50:03.490Z,1436
2016-07-29T08:51:03.523Z,1116
2016-07-29T08:52:03.560Z,1212
2016-07-29T08:53:03.580Z,1020
2016-07-29T08:54:03.605Z,868
2016-07-29T08:55:03.644Z,700
2016-07-29T08:56:03.670Z,688
2016-07-29T08:57:03.804Z,744
2016-07-29T08:58:03.721Z,804
2016-07-29T08:59:03.755Z,884
2016-07-29T09:00:03.776Z,828
2016-07-29T09:01:04.513Z,900
2016-07-29T09:02:03.835Z,916
2016-07-29T09:03:04.575Z,604
2016-07-29T09:04:03.902Z,624
2016-07-29T09:05:04.066Z,616
2016-07-29T09:06:03.963Z,612
2016-07-29T09:07:03.977Z,704
2016-07-29T09:08:04.103Z,844
2016-07-29T09:09:04.047Z,1336
2016-07-29T09:10:04.073Z,1460
2016-07-29T09:11:04.124Z,1656
2016-07-29T09:12:04.124Z,1708
2016-07-29T09:13:04.360Z,1472
2016-07-29T09:14:04.182Z,1164
2016-07-29T09:15:04.217Z,1328
2016-07-29T09:16:04.361Z,1624
2016-07-29T09:17:04.278Z,2160
2016-07-29T09:18:04.306Z,2516
2016-07-29T09:19:04.334Z,2536
2016-07-29T09:20:04.356Z,2620
2016-07-29T09:21:04.489Z,2136
2016-07-29T09:22:04.413Z,1884
2016-07-29T09:23:04.440Z,1688
2016-07-29T09:24:04.492Z,1688
2016-07-29T09:25:04.532Z,2056
2016-07-29T09:26:04.650Z,2180
2016-07-29T09:27:04.669Z,2320
2016-07-29T09:28:04.588Z,2000
2016-07-29T09:29:04.624Z,1808
2016-07-29T09:30:05.372Z,2196
2016-07-29T09:31:04.673Z,2024
2016-07-29T09:32:04.719Z,1936
2016-07-29T09:33:04.904Z,1920
2016-07-29T09:34:04.782Z,2384
2016-07-29T09:35:04.792Z,2180
2016-07-29T09:36:04.824Z,2064
2016-07-29T09:37:04.855Z,2660
2016-07-29T09:38:04.893Z,2820
2016-07-29T09:39:04.919Z,2484
2016-07-29T09:40:05.654Z,2676
2016-07-29T09:41:04.981Z,2636
2016-07-29T09:42:05.108Z,2256
2016-07-29T09:43:05.033Z,1964
2016-07-29T09:44:05.069Z,1720
2016-07-29T09:45:05.113Z,1640
2016-07-29T09:46:05.131Z,1016
2016-07-29T09:47:05.865Z,912
2016-07-29T09:48:05.186Z,904
2016-07-29T09:49:05.240Z,916
2016-07-29T09:50:05.239Z,768
2016-07-29T09:51:05.285Z,608
2016-07-29T09:52:05.313Z,496
2016-07-29T09:53:05.332Z,568
2016-07-29T09:54:05.362Z,896
2016-07-29T09:55:05.387Z,1428
2016-07-29T09:56:05.430Z,1732
2016-07-29T09:57:05.453Z,1368
2016-07-29T09:58:05.497Z,2048
2016-07-29T09:59:05.506Z,2164
2016-07-29T10:00:05.549Z,2732
2016-07-29T10:01:05.568Z,2752
2016-07-29T10:02:05.608Z,2148
2016-07-29T10:03:05.632Z,1696
2016-07-29T10:05:05.689Z,1344
2016-07-29T10:06:05.728Z,1260
2016-07-29T10:07:05.745Z,1296
2016-07-29T10:08:05.778Z,1544
2016-07-29T10:09:05.871Z,1788
2016-07-29T10:10:05.832Z,2196
2016-07-29T10:11:05.872Z,2392
2016-07-29T10:12:06.618Z,2344
2016-07-29T10:13:05.975Z,2156
2016-07-29T10:14:06.668Z,2176
2016-07-29T10:15:05.992Z,2212
2016-07-29T10:16:06.017Z,2056
2016-07-29T10:17:06.046Z,1916
2016-07-29T10:18:06.081Z,1696
2016-07-29T10:19:06.362Z,1516
2016-07-29T10:20:06.138Z,1360
2016-07-29T10:21:06.168Z,1328
2016-07-29T10:22:06.209Z,1520
2016-07-29T10:23:06.229Z,1596
2016-07-29T10:24:06.267Z,1904
2016-07-29T10:25:06.291Z,2440
2016-07-29T10:26:06.319Z,2848
2016-07-29T10:27:06.346Z,2852
2016-07-29T10:28:06.384Z,2892
2016-07-29T10:29:06.411Z,2876
2016-07-29T10:30:06.440Z,2456
2016-07-29T10:31:06.483Z,2216
2016-07-29T10:32:07.226Z,2328
2016-07-29T10:33:06.536Z,2572
2016-07-29T10:34:06.576Z,2916
2016-07-29T10:35:06.599Z,3844
2016-07-29T10:36:06.739Z,3560
2016-07-29T10:37:06.749Z,3724
2016-07-29T10:38:06.911Z,3032
2016-07-29T10:39:06.918Z,3152
2016-07-29T10:40:07.826Z,2792
2016-07-29T10:41:07.641Z,2592
2016-07-29T10:42:06.979Z,1724
2016-07-29T10:43:06.953Z,1828
2016-07-29T10:44:07.672Z,2992
2016-07-29T10:45:07.141Z,2908
2016-07-29T10:46:07.130Z,2072
2016-07-29T10:47:07.158Z,2444
2016-07-29T10:48:07.075Z,3228
2016-07-29T10:49:07.090Z,3708
2016-07-29T10:50:07.276Z,2568
2016-07-29T10:51:07.106Z,1324
2016-07-29T10:52:07.825Z,980
2016-07-29T10:53:07.146Z,1412
2016-07-29T10:54:07.192Z,1760
2016-07-29T10:55:07.206Z,2664
2016-07-29T10:56:07.247Z,3304
2016-07-29T10:57:07.268Z,3488
2016-07-29T10:58:07.387Z,4364
2016-07-29T10:59:07.334Z,3600
2016-07-29T11:00:07.366Z,2504
2016-07-29T11:01:07.392Z,2520
2016-07-29T11:02:07.439Z,2532
2016-07-29T11:03:07.469Z,1812
2016-07-29T11:04:07.547Z,1764
2016-07-29T11:05:08.227Z,1592
2016-07-29T11:06:08.258Z,1308
2016-07-29T11:07:07.581Z,2336
2016-07-29T11:08:07.611Z,2240
2016-07-29T11:09:07.647Z,2324
2016-07-29T11:10:07.693Z,2508
2016-07-29T11:11:07.706Z,1572
2016-07-29T11:12:07.736Z,1448
2016-07-29T11:13:08.480Z,1712
2016-07-29T11:14:07.801Z,2076
2016-07-29T11:15:08.535Z,3028
2016-07-29T11:16:07.884Z,2984
2016-07-29T11:17:07.890Z,2868
2016-07-29T11:18:08.640Z,3192
2016-07-29T11:19:07.960Z,2892
2016-07-29T11:20:07.998Z,2352
2016-07-29T11:21:08.023Z,2400
2016-07-29T11:22:08.773Z,3076
2016-07-29T11:23:08.081Z,3976
2016-07-29T11:24:08.111Z,2876
2016-07-29T11:25:09.458Z,3564
2016-07-29T11:26:08.885Z,3188
2016-07-29T11:27:08.321Z,3248
2016-07-29T11:28:08.947Z,3200
2016-07-29T11:29:08.273Z,2968
2016-07-29T11:30:09.063Z,2280
2016-07-29T11:31:08.333Z,2244
2016-07-29T11:32:08.365Z,2368
2016-07-29T11:33:09.101Z,3032
2016-07-29T11:34:08.428Z,1748
2016-07-29T11:35:08.458Z,1828
2016-07-29T11:36:09.205Z,2172
2016-07-29T11:37:08.528Z,1892
2016-07-29T11:38:08.553Z,1912
2016-07-29T11:39:08.588Z,2304
2016-07-29T11:40:08.617Z,2300
2016-07-29T11:41:08.665Z,2168
2016-07-29T11:42:08.682Z,1596
2016-07-29T11:43:08.745Z,1668
2016-07-29T11:44:08.755Z,2528
2016-07-29T11:45:08.784Z,3400
2016-07-29T11:46:09.523Z,2808
2016-07-29T11:47:08.891Z,1980
2016-07-29T11:48:08.876Z,1824
2016-07-29T11:49:08.956Z,1492
2016-07-29T11:50:09.695Z,1508
2016-07-29T11:51:08.975Z,1792
2016-07-29T11:52:09.004Z,3080
2016-07-29T11:53:09.031Z,2976
2016-07-29T11:54:09.064Z,2764
2016-07-29T11:55:09.102Z,3204
2016-07-29T11:56:09.127Z,3772
2016-07-29T11:57:09.167Z,4348
2016-07-29T11:58:09.196Z,4120
2016-07-29T11:59:09.226Z,4240
2016-07-29T12:00:09.968Z,4180
2016-07-29T12:01:09.290Z,3268
2016-07-29T12:02:09.323Z,2668
2016-07-29T12:03:10.062Z,2656
2016-07-29T12:04:09.383Z,2848
2016-07-29T12:05:09.421Z,1932
2016-07-29T12:06:09.449Z,3312
2016-07-29T12:07:09.480Z,4052
2016-07-29T12:08:09.511Z,3364
2016-07-29T12:09:09.549Z,3536
2016-07-29T12:10:09.587Z,3956
2016-07-29T12:11:09.606Z,4276
2016-07-29T12:12:09.695Z,2932
2016-07-29T12:13:09.678Z,3432
2016-07-29T12:14:09.716Z,3360
2016-07-29T12:15:09.753Z,3580
2016-07-29T12:16:09.774Z,4520
2016-07-29T12:17:09.806Z,4296
2016-07-29T12:18:09.890Z,3836
2016-07-29T12:19:09.871Z,3416
2016-07-29T12:20:09.913Z,2588
2016-07-29T12:21:09.936Z,1924
2016-07-29T12:22:09.969Z,2048
2016-07-29T12:23:10.006Z,3140
2016-07-29T12:24:10.034Z,4172
2016-07-29T12:25:10.067Z,3952
2016-07-29T12:26:10.387Z,3372
2016-07-29T12:27:10.228Z,3184
2016-07-29T12:28:10.871Z,2944
2016-07-29T12:29:10.269Z,3036
2016-07-29T12:30:10.277Z,3948
2016-07-29T12:31:10.563Z,4060
2016-07-29T12:32:11.010Z,2972
2016-07-29T12:33:10.431Z,2648
2016-07-29T12:34:10.465Z,2176
2016-07-29T12:35:11.103Z,1956
2016-07-29T12:36:10.481Z,1892
2016-07-29T12:37:10.688Z,1528
2016-07-29T12:38:11.207Z,2172
2016-07-29T12:39:10.704Z,2580
2016-07-29T12:40:10.556Z,2672
2016-07-29T12:41:10.798Z,2408
2016-07-29T12:42:10.679Z,1968
2016-07-29T12:43:10.666Z,1436
2016-07-29T12:44:10.692Z,1012
2016-07-29T12:45:11.432Z,1160
2016-07-29T12:46:11.466Z,1392
2016-07-29T12:47:11.510Z,1728
2016-07-29T12:48:10.824Z,2364
2016-07-29T12:49:10.860Z,3100
2016-07-29T12:50:11.798Z,3736
2016-07-29T12:51:10.932Z,4600
2016-07-29T12:52:10.961Z,2648
2016-07-29T12:53:11.196Z,4496
2016-07-29T12:54:11.023Z,4600
2016-07-29T12:55:11.070Z,2704
2016-07-29T12:56:11.091Z,2596
2016-07-29T12:57:11.178Z,2780
2016-07-29T12:58:11.205Z,2012
2016-07-29T12:59:11.194Z,2104
2016-07-29T13:00:11.226Z,1184
2016-07-29T13:01:11.259Z,936
2016-07-29T13:02:11.291Z,976
2016-07-29T13:03:11.321Z,1148
2016-07-29T13:04:12.126Z,1628
2016-07-29T13:05:11.395Z,2512
2016-07-29T13:06:11.424Z,3304
2016-07-29T13:07:11.461Z,2516
2016-07-29T13:08:11.494Z,1924
2016-07-29T13:09:11.522Z,1732
2016-07-29T13:10:12.477Z,1616
2016-07-29T13:11:11.604Z,1548
2016-07-29T13:12:11.826Z,1312
2016-07-29T13:13:11.656Z,1456
2016-07-29T13:14:11.692Z,2312
2016-07-29T13:15:12.535Z,2900
2016-07-29T13:16:11.753Z,2268
2016-07-29T13:17:11.792Z,3004
2016-07-29T13:18:12.667Z,2960
2016-07-29T13:19:11.858Z,3812
2016-07-29T13:20:11.906Z,2916
2016-07-29T13:21:11.934Z,4836
2016-07-29T13:22:11.956Z,5540
2016-07-29T13:23:11.986Z,4628
2016-07-29T13:24:12.030Z,3868
2016-07-29T13:25:12.052Z,4252
2016-07-29T13:26:12.092Z,3932
2016-07-29T13:27:12.125Z,4428
2016-07-29T13:28:12.267Z,3532
2016-07-29T13:29:12.277Z,4796
2016-07-29T13:30:12.317Z,4644
2016-07-29T13:31:12.348Z,4804
2016-07-29T13:32:12.295Z,4364
2016-07-29T13:33:12.323Z,3372
2016-07-29T13:34:12.368Z,3636
2016-07-29T13:35:12.384Z,4408
2016-07-29T13:36:12.423Z,4484
2016-07-29T13:37:12.574Z,3748
2016-07-29T13:38:12.491Z,3404
2016-07-29T13:39:12.802Z,3552
2016-07-29T13:40:12.672Z,2320
2016-07-29T13:41:12.595Z,3712
2016-07-29T13:42:12.630Z,4096
2016-07-29T13:43:12.715Z,5040
2016-07-29T13:44:12.689Z,3488
2016-07-29T13:45:12.853Z,2620
2016-07-29T13:46:12.758Z,2496
2016-07-29T13:47:13.565Z,4632
2016-07-29T13:48:12.826Z,5732
2016-07-29T13:49:12.858Z,5052
2016-07-29T13:50:12.895Z,5420
2016-07-29T13:51:12.935Z,5512
2016-07-29T13:52:12.959Z,4300
2016-07-29T13:53:13.000Z,4412
2016-07-29T13:54:13.038Z,4808
2016-07-29T13:55:13.061Z,4652
2016-07-29T13:56:13.098Z,3588
2016-07-29T13:57:13.849Z,3748
2016-07-29T13:58:13.166Z,4032
2016-07-29T13:59:13.216Z,4660
2016-07-29T14:00:13.236Z,5568
2016-07-29T14:01:13.291Z,5816
2016-07-29T14:02:13.310Z,6084
2016-07-29T14:03:14.820Z,5788
2016-07-29T14:04:13.573Z,5204
2016-07-29T14:05:13.459Z,4276
2016-07-29T14:06:14.150Z,5124
2016-07-29T14:07:13.483Z,3936
2016-07-29T14:08:13.673Z,3804
2016-07-29T14:09:13.553Z,2712
2016-07-29T14:10:13.578Z,3996
2016-07-29T14:11:13.618Z,4512
2016-07-29T14:12:14.354Z,3184
2016-07-29T14:13:13.694Z,3168
2016-07-29T14:14:13.769Z,2420
2016-07-29T14:15:13.755Z,1652
2016-07-29T14:16:13.784Z,848
2016-07-29T14:17:13.900Z,516
2016-07-29T14:18:13.860Z,408
2016-07-29T14:19:13.891Z,344
2016-07-29T14:20:13.916Z,356
2016-07-29T14:21:14.012Z,388
2016-07-29T14:22:14.933Z,368
2016-07-29T14:23:14.023Z,340
2016-07-29T14:24:14.062Z,352
2016-07-29T14:25:14.097Z,460
2016-07-29T14:26:14.133Z,736
2016-07-29T14:27:14.887Z,2340
2016-07-29T14:28:14.196Z,3380
2016-07-29T14:29:14.998Z,3576
2016-07-29T14:30:14.317Z,3060
2016-07-29T14:31:15.015Z,2404
2016-07-29T14:32:14.338Z,1812
2016-07-29T14:33:14.373Z,1548
2016-07-29T14:34:14.410Z,1312
2016-07-29T14:36:15.438Z,1544
2016-07-29T14:37:14.564Z,1624
2016-07-29T14:38:14.548Z,1576
2016-07-29T14:39:14.581Z,1400
2016-07-29T14:40:14.622Z,1176
2016-07-29T14:41:14.665Z,956
2016-07-29T14:42:14.684Z,936
2016-07-29T14:43:14.908Z,1032
2016-07-29T14:44:14.752Z,916
2016-07-29T14:45:14.791Z,812
2016-07-29T14:46:14.825Z,876
2016-07-29T14:47:14.857Z,828
2016-07-29T14:48:14.891Z,784
2016-07-29T14:49:14.927Z,768
2016-07-29T14:51:15.789Z,668
2016-07-29T14:52:15.038Z,616
2016-07-29T14:53:15.781Z,592
2016-07-29T14:54:15.093Z,572
2016-07-29T14:55:15.158Z,564
2016-07-29T14:56:15.173Z,584
2016-07-29T14:57:15.204Z,624
2016-07-29T14:58:15.289Z,676
2016-07-29T14:59:15.584Z,748
2016-07-29T15:00:16.233Z,812
2016-07-29T15:01:15.340Z,864
2016-07-29T15:02:15.371Z,868
2016-07-29T15:03:15.403Z,864
2016-07-29T15:04:16.285Z,880
2016-07-29T15:06:16.216Z,912
2016-07-29T15:07:15.542Z,908
2016-07-29T15:08:15.575Z,908
2016-07-29T15:09:15.609Z,964
2016-07-29T15:10:15.643Z,1016
2016-07-29T15:11:15.674Z,1008
2016-07-29T15:12:15.713Z,1116
2016-07-29T15:13:15.746Z,1292
2016-07-29T15:14:15.774Z,1276
2016-07-29T15:15:16.584Z,1216
2016-07-29T15:16:15.855Z,1204
2016-07-29T15:17:15.876Z,1192
2016-07-29T15:18:15.919Z,1240
2016-07-29T15:19:15.999Z,1436
2016-07-29T15:20:15.980Z,1588
2016-07-29T15:21:16.016Z,1656
2016-07-29T15:22:16.784Z,1612
2016-07-29T15:23:16.083Z,1572
2016-07-29T15:24:16.112Z,1584
2016-07-29T15:25:16.161Z,1640
2016-07-29T15:26:16.219Z,1736
2016-07-29T15:27:16.222Z,1808
2016-07-29T15:28:16.991Z,1924
2016-07-29T15:29:16.331Z,1924
2016-07-29T15:30:17.086Z,1716
2016-07-29T15:31:16.350Z,1508
2016-07-29T15:32:16.407Z,1204
2016-07-29T15:33:16.419Z,1124
2016-07-29T15:34:16.449Z,1196
2016-07-29T15:35:16.495Z,1432
2016-07-29T15:36:16.514Z,1876
2016-07-29T15:37:16.552Z,2452
2016-07-29T15:38:16.581Z,2976
2016-07-29T15:39:16.624Z,3184
2016-07-29T15:40:16.658Z,2708
2016-07-29T15:41:16.680Z,2448
2016-07-29T15:42:16.863Z,2100
2016-07-29T15:43:16.871Z,2256
2016-07-29T15:44:16.860Z,2620
2016-07-29T15:45:17.587Z,2596
2016-07-29T15:46:16.868Z,2204
2016-07-29T15:47:16.895Z,1684
2016-07-29T15:48:16.916Z,1372
2016-07-29T15:49:16.953Z,1344
2016-07-29T15:50:16.983Z,1364
2016-07-29T15:51:17.748Z,1384
2016-07-29T15:52:17.061Z,1288
2016-07-29T15:53:17.080Z,1216
2016-07-29T15:54:17.229Z,1168
2016-07-29T15:55:17.857Z,1300
2016-07-29T15:56:17.200Z,1688
2016-07-29T15:57:17.243Z,1924
2016-07-29T15:58:17.950Z,1816
2016-07-29T15:59:17.595Z,1864
2016-07-29T16:00:17.312Z,1996
2016-07-29T16:01:17.342Z,2076
2016-07-29T16:02:17.427Z,2068
2016-07-29T16:03:17.411Z,2004
2016-07-29T16:04:17.455Z,1904
2016-07-29T16:05:17.474Z,1792
2016-07-29T16:06:18.213Z,1708
2016-07-29T16:07:17.560Z,1616
2016-07-29T16:08:17.590Z,1508
2016-07-29T16:09:17.662Z,1404
2016-07-29T16:10:18.351Z,1292
2016-07-29T16:11:17.686Z,1264
2016-07-29T16:12:17.814Z,1324
2016-07-29T16:13:17.789Z,1396
2016-07-29T16:14:17.775Z,1380
2016-07-29T16:15:17.806Z,1276
2016-07-29T16:16:18.543Z,1140
2016-07-29T16:17:17.865Z,1032
2016-07-29T16:18:17.903Z,960
2016-07-29T16:19:18.056Z,920
2016-07-29T16:20:18.681Z,868
2016-07-29T16:21:18.002Z,800
2016-07-29T16:22:18.075Z,800
2016-07-29T16:23:18.066Z,796
2016-07-29T16:24:18.100Z,852
2016-07-29T16:25:18.142Z,1032
2016-07-29T16:26:18.158Z,1212
2016-07-29T16:27:18.195Z,1204
2016-07-29T16:28:19.024Z,1116
2016-07-29T16:29:18.393Z,1092
2016-07-29T16:30:18.404Z,1116
2016-07-29T16:31:18.328Z,1172
2016-07-29T16:32:18.349Z,1060
2016-07-29T16:33:18.437Z,908
2016-07-29T16:34:18.422Z,896
2016-07-29T16:35:18.449Z,888
2016-07-29T16:36:18.492Z,724
2016-07-29T16:37:18.510Z,596
2016-07-29T16:38:18.546Z,540
2016-07-29T16:39:18.694Z,492
2016-07-29T16:40:18.609Z,476
2016-07-29T16:41:18.690Z,468
2016-07-29T16:42:20.090Z,436
2016-07-29T16:43:18.709Z,392
2016-07-29T16:44:18.738Z,368
2016-07-29T16:45:18.770Z,324
2016-07-29T16:46:18.803Z,288
2016-07-29T16:47:18.834Z,244
2016-07-29T16:48:18.868Z,256
2016-07-29T16:49:18.896Z,352
2016-07-29T16:50:18.941Z,484
2016-07-29T16:51:18.962Z,592
2016-07-29T16:52:18.993Z,656
2016-07-29T16:53:19.028Z,736
2016-07-29T16:54:19.768Z,800
2016-07-29T16:55:19.873Z,760
2016-07-29T16:56:19.880Z,636
2016-07-29T16:57:19.148Z,740
2016-07-29T16:58:20.133Z,1028
2016-07-29T16:59:19.269Z,1232
2016-07-29T17:00:19.246Z,1344
2016-07-29T17:01:19.329Z,1244
2016-07-29T17:02:19.312Z,920
2016-07-29T17:03:19.341Z,784
2016-07-29T17:04:20.092Z,820
2016-07-29T17:05:19.411Z,812
2016-07-29T17:06:19.448Z,764
2016-07-29T17:07:19.467Z,784
2016-07-29T17:08:20.206Z,780
2016-07-29T17:09:19.531Z,780
2016-07-29T17:10:19.727Z,704
2016-07-29T17:11:19.679Z,656
2016-07-29T17:12:20.383Z,600
2016-07-29T17:13:20.485Z,488
2016-07-29T17:14:19.855Z,468
2016-07-29T17:15:19.721Z,520
2016-07-29T17:16:19.866Z,568
2016-07-29T17:17:19.782Z,596
2016-07-29T17:18:19.811Z,588
2016-07-29T17:19:19.847Z,576
2016-07-29T17:20:19.877Z,588
2016-07-29T17:21:19.906Z,596
2016-07-29T17:22:20.642Z,636
2016-07-29T17:23:21.398Z,636
2016-07-29T17:24:20.001Z,608
2016-07-29T17:25:20.737Z,600
2016-07-29T17:26:20.063Z,620
2016-07-29T17:27:20.807Z,660
2016-07-29T17:28:20.125Z,672
2016-07-29T17:29:20.154Z,684
2016-07-29T17:30:20.895Z,652
2016-07-29T17:31:20.216Z,580
2016-07-29T17:32:20.248Z,520
2016-07-29T17:33:20.277Z,484
2016-07-29T17:34:20.307Z,512
2016-07-29T17:35:20.507Z,532
2016-07-29T17:36:20.512Z,516
2016-07-29T17:37:20.514Z,532
2016-07-29T17:38:20.440Z,516
2016-07-29T17:39:20.471Z,420
2016-07-29T17:40:20.496Z,336
2016-07-29T17:41:20.532Z,332
2016-07-29T17:42:20.559Z,340
2016-07-29T17:43:20.589Z,352
2016-07-29T17:44:20.620Z,376
2016-07-29T17:45:20.646Z,368
2016-07-29T17:46:20.678Z,356
2016-07-29T17:47:20.717Z,332
2016-07-29T17:48:20.737Z,292
2016-07-29T17:49:20.772Z,256
2016-07-29T17:50:20.874Z,236
2016-07-29T17:51:20.835Z,224
2016-07-29T17:52:20.865Z,236
2016-07-29T17:53:21.016Z,240
2016-07-29T17:54:21.637Z,272
2016-07-29T17:55:21.073Z,284
2016-07-29T17:56:20.987Z,280
2016-07-29T17:57:21.130Z,240
2016-07-29T17:58:21.046Z,200
2016-07-29T17:59:21.200Z,176
2016-07-29T18:00:21.125Z,156
2016-07-29T18:01:21.139Z,160
2016-07-29T18:02:21.296Z,176
2016-07-29T18:03:21.222Z,196
2016-07-29T18:04:21.348Z,204
2016-07-29T18:05:21.454Z,200
2016-07-29T18:06:21.291Z,196
2016-07-29T18:07:21.325Z,188
2016-07-29T18:08:21.356Z,184
2016-07-29T18:09:21.385Z,188
2016-07-29T18:10:22.181Z,200
2016-07-29T18:11:21.444Z,200
2016-07-29T18:12:21.495Z,208
2016-07-29T18:13:21.509Z,216
2016-07-29T18:14:21.544Z,224
2016-07-29T18:15:21.569Z,228
2016-07-29T18:16:21.598Z,228
2016-07-29T18:17:22.339Z,236
2016-07-29T18:18:21.657Z,264
2016-07-29T18:19:22.546Z,284
2016-07-29T18:20:21.725Z,252
2016-07-29T18:21:21.864Z,220
2016-07-29T18:22:21.814Z,176
2016-07-29T18:23:22.524Z,152
2016-07-29T18:24:21.852Z,140
2016-07-29T18:25:22.640Z,128
2016-07-29T18:26:21.904Z,124
2016-07-29T18:27:22.011Z,132
2016-07-29T18:28:21.959Z,140
2016-07-29T18:29:21.995Z,152
2016-07-29T18:30:22.022Z,164
2016-07-29T18:31:22.113Z,156
2016-07-29T18:32:22.079Z,136
2016-07-29T18:33:22.124Z,120
2016-07-29T18:34:22.849Z,116
2016-07-29T18:35:22.179Z,112
2016-07-29T18:36:22.197Z,112
2016-07-29T18:37:22.948Z,108
2016-07-29T18:38:22.269Z,104
2016-07-29T18:39:23.039Z,92
2016-07-29T18:40:22.327Z,84